Time;durP1;ratioP1;P1;durP2;ratioP2;P2;SDS_P1;SDS_P2;PMS_P1;PMS_P2;Temp;Humidity;BMP_temperature;BMP_pressure;BME280_temperature;BME280_humidity;BME280_pressure;Samples;Min_cycle;Max_cycle;Signal;HPM_P1;HPM_P2
2022/11/23 00:01:22;;;;;;;3.97;1.30;;;;;;;14.51;77.00;97879.22;5093920;28;20176;-93
2022/11/23 00:03:51;;;;;;;10.03;1.20;;;;;;;14.50;77.12;97876.72;5094186;28;20153;-92
2022/11/23 00:06:20;;;;;;;1.90;0.70;;;;;;;14.53;77.27;97879.09;5092718;28;20179;-92
2022/11/23 00:08:47;;;;;;;9.23;1.23;;;;;;;14.69;75.54;97879.41;5093596;28;20563;-91
2022/11/23 00:11:14;;;;;;;2.77;1.40;;;;;;;14.94;74.83;97875.38;5093643;28;20169;-92
2022/11/23 00:13:41;;;;;;;4.20;1.00;;;;;;;14.81;75.34;97869.53;5092534;28;20181;-91
2022/11/23 00:16:13;;;;;;;2.87;1.30;;;;;;;14.85;75.38;97863.03;5093501;28;20172;-91
2022/11/23 00:18:40;;;;;;;2.73;1.20;;;;;;;14.78;76.07;97862.72;5093976;28;20181;-92
2022/11/23 00:21:17;;;;;;;3.87;1.10;;;;;;;14.82;76.63;97845.69;5094003;28;20181;-93
2022/11/23 00:23:44;;;;;;;1.80;0.90;;;;;;;14.86;77.20;97844.41;5092858;28;20170;-94
2022/11/23 00:26:12;;;;;;;2.00;0.90;;;;;;;14.87;77.02;97839.97;5093031;28;20176;-94
2022/11/23 00:28:40;;;;;;;1.50;0.80;;;;;;;14.76;77.87;97833.88;5092715;28;20168;-93
2022/11/23 00:31:09;;;;;;;2.33;0.90;;;;;;;14.70;78.30;97823.06;5093018;28;20228;-92
2022/11/23 00:33:36;;;;;;;2.20;1.00;;;;;;;14.45;79.83;97834.94;5093584;28;20165;-91
2022/11/23 00:36:10;;;;;;;2.80;1.53;;;;;;;14.56;79.46;97826.91;5093699;28;20174;-93
2022/11/23 00:38:38;;;;;;;2.93;0.90;;;;;;;14.65;78.72;97815.53;5092780;28;20195;-92
2022/11/23 00:41:22;;;;;;;5.13;1.00;;;;;;;14.65;79.08;97820.81;5092653;28;20186;-94
2022/11/23 00:44:06;;;;;;;8.30;1.57;;;;;;;14.38;80.46;97817.19;5092694;28;20173;-93
2022/11/23 00:46:33;;;;;;;6.50;1.27;;;;;;;14.47;80.05;97821.63;5092773;28;20614;-93
2022/11/23 00:49:03;;;;;;;4.13;1.20;;;;;;;14.50;80.14;97816.91;5092945;28;20174;-93
2022/11/23 00:51:33;;;;;;;6.33;1.13;;;;;;;14.50;80.23;97822.19;5092809;28;20591;-93
2022/11/23 00:54:02;;;;;;;5.40;1.10;;;;;;;14.54;79.86;97822.75;5092768;28;20169;-93
2022/11/23 00:56:30;;;;;;;5.03;1.40;;;;;;;14.28;81.07;97832.91;5092788;28;20253;-92
2022/11/23 00:58:58;;;;;;;7.47;2.30;;;;;;;14.52;80.64;97828.16;5092631;28;20198;-93
2022/11/23 01:01:29;;;;;;;4.10;1.33;;;;;;;14.57;79.72;97817.22;5093240;28;20201;-92
2022/11/23 01:03:57;;;;;;;3.53;1.20;;;;;;;14.44;80.35;97824.56;5092222;28;20633;-93
2022/11/23 01:06:27;;;;;;;4.27;1.40;;;;;;;14.63;80.19;97816.63;5093206;28;20170;-93
2022/11/23 01:08:56;;;;;;;2.17;1.03;;;;;;;14.75;78.99;97815.56;5092475;28;20178;-93
2022/11/23 01:11:25;;;;;;;10.03;2.10;;;;;;;14.60;79.48;97811.63;5092652;28;20177;-91
2022/11/23 01:13:53;;;;;;;4.10;1.40;;;;;;;14.58;79.89;97803.03;5093063;28;20248;-93
2022/11/23 01:16:28;;;;;;;2.87;1.40;;;;;;;14.67;79.27;97807.50;5093294;28;20177;-91
2022/11/23 01:18:55;;;;;;;7.73;1.67;;;;;;;14.58;79.72;97808.31;5091901;28;20201;-92
2022/11/23 01:21:26;;;;;;;4.03;1.47;;;;;;;14.67;79.04;97805.66;5092075;28;20190;-93
2022/11/23 01:23:53;;;;;;;10.83;1.77;;;;;;;14.59;80.12;97795.00;5092001;28;20641;-92
2022/11/23 01:26:20;;;;;;;8.07;1.47;;;;;;;14.55;80.18;97790.97;5094311;28;20177;-92
2022/11/23 01:28:47;;;;;;;5.07;2.43;;;;;;;14.55;80.66;97782.22;5095536;28;20200;-92
2022/11/23 01:31:20;;;;;;;4.33;1.97;;;;;;;14.29;82.09;97787.16;5095731;28;20174;-92
2022/11/23 01:33:51;;;;;;;10.20;2.47;;;;;;;14.37;82.19;97782.06;5095553;28;20174;-92
2022/11/23 01:36:20;;;;;;;6.00;2.47;;;;;;;14.36;82.41;97775.13;5096012;28;20226;-92
2022/11/23 01:38:48;;;;;;;9.27;1.87;;;;;;;14.18;83.52;97780.19;5096246;28;20198;-91
2022/11/23 01:41:19;;;;;;;3.43;1.23;;;;;;;14.49;82.40;97766.97;5095568;28;20178;-91
2022/11/23 01:43:47;;;;;;;6.03;1.80;;;;;;;14.39;82.56;97782.75;5096841;28;20646;-92
2022/11/23 01:46:13;;;;;;;3.63;1.30;;;;;;;14.53;82.59;97785.00;5095237;28;20177;-91
2022/11/23 01:49:00;;;;;;;5.33;1.57;;;;;;;14.45;82.81;97776.94;5096067;28;20233;-90
2022/11/23 01:51:36;;;;;;;2.53;1.30;;;;;;;14.60;82.10;97782.63;5096451;28;20162;-92
2022/11/23 01:54:14;;;;;;;1.90;0.93;;;;;;;14.56;82.37;97783.91;5094203;28;20172;-91
2022/11/23 01:56:45;;;;;;;5.07;1.60;;;;;;;14.63;82.24;97785.00;5096321;28;20161;-92
2022/11/23 01:59:15;;;;;;;5.30;1.40;;;;;;;14.40;83.40;97776.53;5096073;28;20200;-92
2022/11/23 02:01:42;;;;;;;5.87;2.00;;;;;;;14.28;83.64;97774.13;5095030;28;20533;-90
2022/11/23 02:04:13;;;;;;;3.87;1.17;;;;;;;14.37;83.83;97783.88;5095804;28;20207;-91
2022/11/23 02:06:40;;;;;;;8.73;2.27;;;;;;;14.60;82.79;97772.09;5095981;28;20595;-92
2022/11/23 02:09:06;;;;;;;4.67;1.53;;;;;;;14.77;81.86;97766.13;5094829;28;20165;-93
2022/11/23 02:11:32;;;;;;;7.13;1.47;;;;;;;14.86;81.69;97764.47;5094838;28;20180;-92
2022/11/23 02:13:59;;;;;;;2.10;1.00;;;;;;;14.77;81.08;97760.84;5095731;28;20176;-91
2022/11/23 02:16:25;;;;;;;5.07;2.00;;;;;;;14.87;81.22;97752.91;5095922;28;20169;-92
2022/11/23 02:18:51;;;;;;;5.13;1.60;;;;;;;14.83;81.12;97746.28;5094551;28;20703;-93
2022/11/23 02:21:17;;;;;;;7.83;1.60;;;;;;;14.76;81.46;97743.34;5095463;28;20551;-92
2022/11/23 02:24:03;;;;;;;4.47;1.37;;;;;;;14.87;81.50;97745.84;5095431;28;20178;-92
2022/11/23 02:26:32;;;;;;;5.17;1.40;;;;;;;14.82;81.34;97721.69;5094809;28;20182;-92
2022/11/23 02:29:01;;;;;;;5.13;1.40;;;;;;;14.55;82.83;97721.56;5095036;28;20173;-92
2022/11/23 02:31:26;;;;;;;2.57;1.10;;;;;;;14.41;84.03;97725.47;5094375;28;20178;-92
2022/11/23 02:33:51;;;;;;;5.00;1.40;;;;;;;14.33;84.47;97719.22;5094430;28;20181;-92
2022/11/23 02:36:36;;;;;;;6.03;1.63;;;;;;;14.32;85.21;97717.56;5094241;28;20176;-93
2022/11/23 02:39:29;;;;;;;2.17;1.30;;;;;;;14.11;86.08;97712.38;5094176;28;20205;-92
2022/11/23 02:41:55;;;;;;;7.33;1.87;;;;;;;14.15;85.96;97713.75;5094189;28;20644;-93
2022/11/23 02:44:54;;;;;;;4.57;1.30;;;;;;;14.35;85.30;97707.59;5094236;28;20180;-92
2022/11/23 02:47:20;;;;;;;3.70;1.60;;;;;;;14.08;87.12;97700.31;5094155;28;20204;-92
2022/11/23 02:49:47;;;;;;;11.17;2.00;;;;;;;13.98;88.29;97694.22;5094161;28;20255;-91
2022/11/23 02:52:13;;;;;;;6.87;1.33;;;;;;;14.15;87.85;97697.94;5094120;28;20173;-93
2022/11/23 02:54:38;;;;;;;2.57;1.27;;;;;;;14.30;87.03;97688.69;5094141;28;20174;-92
2022/11/23 02:57:05;;;;;;;6.30;1.60;;;;;;;14.21;87.52;97684.22;5094797;28;20614;-92
2022/11/23 02:59:31;;;;;;;3.77;1.50;;;;;;;14.13;88.45;97686.72;5093691;28;20193;-91
2022/11/23 03:02:01;;;;;;;3.90;1.50;;;;;;;13.93;90.45;97685.03;5094974;28;20173;-91
2022/11/23 03:04:29;;;;;;;10.30;1.90;;;;;;;13.91;91.66;97693.09;5093814;28;20188;-94
2022/11/23 03:06:58;;;;;;;10.60;2.17;;;;;;;13.90;92.07;97693.22;5094832;28;20176;-93
2022/11/23 03:09:32;;;;;;;7.00;1.50;;;;;;;13.88;93.69;97698.63;5094391;28;20178;-94
2022/11/23 03:16:37;;;;;;;;;;;;;;;;;;;;;
2022/11/23 03:26:50;;;;;;;;;;;;;;;;;;;;;
2022/11/23 03:29:16;;;;;;;5.87;2.13;;;;;;;14.33;94.61;97703.41;5095026;28;20215;-94
2022/11/23 03:31:41;;;;;;;6.40;1.90;;;;;;;14.52;93.89;97698.13;5094864;28;20259;-94
2022/11/23 03:34:12;;;;;;;13.93;2.43;;;;;;;14.54;93.90;97707.56;5095427;28;20170;-94
2022/11/23 03:36:38;;;;;;;2.80;0.90;;;;;;;14.32;95.22;97694.69;5093663;28;20706;-93
2022/11/23 03:39:06;;;;;;;8.03;1.60;;;;;;;14.56;94.31;97696.88;5093354;28;20285;-94
2022/11/23 03:41:31;;;;;;;5.63;2.13;;;;;;;14.64;95.08;97682.03;5093343;28;20261;-93
2022/11/23 03:43:57;;;;;;;8.37;1.93;;;;;;;14.84;94.49;97685.44;5093666;28;20576;-94
2022/11/23 03:46:22;;;;;;;8.97;2.43;;;;;;;14.90;93.38;97676.97;5093308;28;20186;-93
2022/11/23 03:49:02;;;;;;;13.70;2.03;;;;;;;14.60;94.28;97666.63;5093856;28;20186;-94
2022/11/23 03:52:01;;;;;;;6.73;1.93;;;;;;;14.80;93.68;97660.34;5093274;28;20239;-94
2022/11/23 03:54:32;;;;;;;6.03;1.60;;;;;;;14.60;94.38;97664.81;5094365;28;20254;-94
2022/11/23 03:56:58;;;;;;;5.83;1.40;;;;;;;14.53;94.74;97652.34;5093296;28;20178;-92
2022/11/23 03:59:31;;;;;;;9.50;2.10;;;;;;;14.27;96.26;97645.94;5093286;28;20266;-95
2022/11/23 04:01:56;;;;;;;9.03;3.07;;;;;;;14.15;97.15;97646.09;5093355;28;20632;-95
2022/11/23 04:04:22;;;;;;;6.23;1.73;;;;;;;13.90;98.26;97633.47;5092946;28;20266;-95
2022/11/23 04:06:50;;;;;;;8.53;2.03;;;;;;;13.84;99.45;97639.28;5093221;28;20273;-94
2022/11/23 04:09:16;;;;;;;6.00;2.67;;;;;;;13.71;100.00;97635.25;5092784;28;20216;-94
2022/11/23 04:11:41;;;;;;;8.23;1.60;;;;;;;13.75;100.00;97640.13;5092869;28;20173;-94
2022/11/23 04:32:51;;;;;;;3.67;1.43;;;;;;;14.54;97.12;97632.94;4992194;28;20191;-94
2022/11/23 04:40:11;;;;;;;4.17;1.53;;;;;;;14.60;97.62;97642.88;4992701;28;20325;-95
2022/11/23 04:42:38;;;;;;;5.73;1.80;;;;;;;14.89;96.09;97648.09;4984128;28;20202;-95
2022/11/23 05:10:59;;;;;;;5.40;2.20;;;;;;;15.30;89.82;97647.66;4772447;30;20181;-94
2022/11/23 05:14:07;;;;;;;9.30;2.03;;;;;;;15.23;90.20;97647.41;4786914;29;20263;-93
2022/11/23 05:16:49;;;;;;;3.27;1.43;;;;;;;15.09;91.72;97628.59;4752643;29;20210;-95
2022/11/23 05:19:17;;;;;;;3.97;1.97;;;;;;;14.92;92.91;97624.91;4802634;29;20716;-93
2022/11/23 05:21:45;;;;;;;4.13;1.43;;;;;;;14.99;92.25;97633.88;4945334;28;20191;-93
2022/11/23 05:24:20;;;;;;;5.00;1.73;;;;;;;15.23;91.23;97628.09;4995626;28;20520;-93
2022/11/23 05:26:45;;;;;;;5.40;1.70;;;;;;;15.32;89.92;97630.72;5016435;28;20277;-92
2022/11/23 05:29:13;;;;;;;3.83;1.50;;;;;;;15.24;90.03;97629.78;5095841;28;20198;-93
2022/11/23 05:31:46;;;;;;;9.67;1.80;;;;;;;15.20;90.53;97631.84;5096601;28;20190;-92
2022/11/23 05:34:17;;;;;;;5.07;1.60;;;;;;;15.24;90.20;97632.41;5096016;28;20180;-93
2022/11/23 05:36:55;;;;;;;5.17;1.90;;;;;;;15.33;89.94;97642.06;5096370;28;20685;-93
2022/11/23 05:39:22;;;;;;;3.93;1.80;;;;;;;15.38;89.94;97648.56;5095819;28;20199;-92
2022/11/23 05:42:10;;;;;;;3.80;1.80;;;;;;;15.46;89.98;97649.72;5095906;28;20178;-93
2022/11/23 05:44:38;;;;;;;7.57;1.93;;;;;;;15.46;90.43;97663.72;5095775;28;20171;-92
2022/11/23 05:47:08;;;;;;;3.67;1.63;;;;;;;15.57;90.27;97665.34;5095530;28;20182;-92
2022/11/23 05:49:36;;;;;;;2.80;1.50;;;;;;;15.71;89.53;97662.22;5095704;28;20171;-93
2022/11/23 05:52:24;;;;;;;6.73;1.90;;;;;;;15.66;89.87;97667.94;5095671;28;20678;-94
2022/11/23 05:54:52;;;;;;;6.60;2.00;;;;;;;15.59;90.22;97661.56;5095681;28;20267;-92
2022/11/23 06:34:54;;;;;;;7.53;3.80;;;;;;;16.50;80.01;97671.06;4841416;29;20218;-93
2022/11/23 07:17:51;;;;;;;;;;;;;;;;;;;;;
2022/11/23 07:24:00;;;;;;;9.77;4.93;;;;;;;15.69;74.78;97723.13;6227326;22;20153;-93
2022/11/23 07:26:25;;;;;;;16.40;6.30;;;;;;;15.70;75.14;97724.75;6258668;22;20175;-93
2022/11/23 07:28:55;;;;;;;11.67;6.20;;;;;;;15.77;74.26;97730.31;6310606;22;20156;-93
2022/11/23 07:32:14;;;;;;;;;;;;;;;;;;;;;
2022/11/23 07:34:42;;;;;;;12.43;5.63;;;;;;;15.75;74.80;97748.09;6280757;22;20524;-93
2022/11/23 07:37:12;;;;;;;15.07;5.83;;;;;;;15.71;75.15;97741.44;6259450;22;20162;-93
2022/11/23 07:39:58;;;;;;;;;;;;;;;;;;;;;
2022/11/23 07:43:16;;;;;;;;;;;;;;;;;;;;;
2022/11/23 07:46:07;;;;;;;15.53;6.37;;;;;;;15.78;75.05;97726.66;6285322;22;20692;-93
2022/11/23 07:49:03;;;;;;;;;;;;;;;;;;;;;
2022/11/23 07:52:26;;;;;;;14.27;5.50;;;;;;;15.89;74.06;97734.41;6286682;22;20232;-94
2022/11/23 07:55:05;;;;;;;14.57;6.10;;;;;;;15.72;74.94;97733.38;6258642;22;20634;-93
2022/11/23 07:57:36;;;;;;;17.60;7.33;;;;;;;15.63;76.13;97725.50;6259356;22;20280;-92
2022/11/23 08:00:15;;;;;;;;;;;;;;;;;;;;;
2022/11/23 08:02:49;;;;;;;14.23;6.07;;;;;;;15.76;76.33;97729.47;6286022;22;20211;-93
2022/11/23 08:05:25;;;;;;;15.37;6.93;;;;;;;15.89;75.74;97732.59;6258499;22;20172;-92
2022/11/23 08:08:09;;;;;;;21.83;7.60;;;;;;;15.94;74.63;97738.28;6259824;22;20185;-93
2022/11/23 08:11:22;;;;;;;20.33;7.17;;;;;;;15.83;74.88;97737.63;6258616;22;20147;-92
2022/11/23 08:14:06;;;;;;;;;;;;;;;;;;;;;
2022/11/23 08:17:10;;;;;;;;;;;;;;;;;;;;;
2022/11/23 08:19:44;;;;;;;11.93;6.17;;;;;;;15.73;75.71;97750.06;6272197;22;20236;-92
2022/11/23 08:22:11;;;;;;;15.37;6.23;;;;;;;15.79;75.72;97749.47;6251433;22;20160;-91
2022/11/23 08:24:44;;;;;;;17.33;6.97;;;;;;;15.85;75.80;97754.19;6252641;22;20186;-92
2022/11/23 08:27:22;;;;;;;12.80;5.53;;;;;;;15.94;75.14;97750.63;6252529;22;20163;-92
2022/11/23 08:29:59;;;;;;;18.80;6.77;;;;;;;16.00;74.50;97752.72;6251478;22;20494;-92
2022/11/23 08:32:30;;;;;;;12.83;6.00;;;;;;;16.03;74.34;97747.13;6251300;22;20183;-91
2022/11/23 08:35:06;;;;;;;13.33;5.50;;;;;;;16.09;73.36;97751.78;6251662;22;20208;-91
2022/11/23 08:37:51;;;;;;;14.47;5.07;;;;;;;16.07;72.88;97750.28;6251625;22;20547;-92
2022/11/23 08:43:11;;;;;;;10.77;5.90;;;;;;;15.81;73.87;97744.88;6267089;22;20157;-91
2022/11/23 08:45:37;;;;;;;13.30;6.60;;;;;;;15.92;74.14;97756.09;6250933;22;20193;-92
2022/11/23 08:48:13;;;;;;;11.23;6.10;;;;;;;16.05;73.94;97739.03;6251556;22;20164;-92
2022/11/23 08:50:41;;;;;;;13.73;6.13;;;;;;;16.00;72.93;97734.22;6278193;22;20147;-91
2022/11/23 08:53:08;;;;;;;13.40;6.07;;;;;;;15.98;73.32;97744.09;6251473;22;20153;-91
2022/11/23 08:55:35;;;;;;;16.17;5.80;;;;;;;16.03;73.93;97746.28;6251163;22;20178;-91
2022/11/23 08:58:02;;;;;;;14.17;7.07;;;;;;;16.12;74.23;97740.94;6252170;22;20159;-92
2022/11/23 09:00:29;;;;;;;13.77;6.47;;;;;;;16.20;74.00;97745.47;6252114;22;20155;-91
2022/11/23 09:03:00;;;;;;;15.00;6.37;;;;;;;16.20;72.38;97748.13;6277805;22;20204;-92
2022/11/23 09:05:28;;;;;;;16.83;6.37;;;;;;;16.08;72.67;97742.22;6277984;22;20160;-91
2022/11/23 09:08:00;;;;;;;18.30;7.10;;;;;;;16.03;72.87;97736.56;6250866;22;20162;-91
2022/11/23 09:10:27;;;;;;;14.90;6.47;;;;;;;15.90;72.95;97736.06;6251022;22;20150;-91
2022/11/23 09:12:53;;;;;;;22.23;7.03;;;;;;;15.92;73.76;97734.13;6277253;22;20575;-91
2022/11/23 09:15:19;;;;;;;17.23;6.47;;;;;;;15.95;73.70;97733.81;6244554;23;20208;-91
2022/11/23 09:17:45;;;;;;;14.50;6.30;;;;;;;16.03;73.57;97720.69;6246170;23;20566;-91
2022/11/23 09:20:16;;;;;;;15.17;6.30;;;;;;;16.15;72.66;97719.50;6245704;23;20166;-90
2022/11/23 09:22:42;;;;;;;14.93;6.27;;;;;;;16.13;73.07;97721.47;6246121;23;20175;-91
2022/11/23 09:25:09;;;;;;;10.57;6.30;;;;;;;16.28;72.86;97712.03;6246912;22;20195;-91
2022/11/23 09:27:34;;;;;;;13.20;5.83;;;;;;;16.38;72.85;97710.13;6245449;23;20226;-91
2022/11/23 09:30:00;;;;;;;11.53;5.77;;;;;;;16.46;72.74;97707.56;6245285;23;20163;-92
2022/11/23 09:32:26;;;;;;;15.13;6.27;;;;;;;16.50;72.27;97701.00;6246665;22;20170;-91
2022/11/23 09:34:52;;;;;;;10.57;5.73;;;;;;;16.52;72.77;97716.72;6246661;22;20148;-90
2022/11/23 09:37:17;;;;;;;15.10;5.67;;;;;;;16.52;73.34;97711.41;6245207;23;20155;-91
2022/11/23 09:39:43;;;;;;;14.03;5.63;;;;;;;16.58;73.21;97713.50;6245337;23;20218;-92
2022/11/23 09:42:14;;;;;;;12.63;5.37;;;;;;;16.74;72.53;97705.69;6245329;23;20160;-91
2022/11/23 09:44:48;;;;;;;12.10;6.30;;;;;;;16.82;72.71;97710.22;6246308;22;20172;-91
2022/11/23 09:47:25;;;;;;;13.63;6.00;;;;;;;16.91;73.27;97690.75;6246281;22;20148;-91
2022/11/23 09:50:06;;;;;;;14.37;6.27;;;;;;;16.94;73.14;97687.78;6245212;23;20169;-91
2022/11/23 09:52:34;;;;;;;11.33;6.10;;;;;;;16.91;72.65;97682.81;6246622;23;20133;-91
2022/11/23 09:55:24;;;;;;;13.80;6.37;;;;;;;16.97;71.96;97679.53;6245262;23;20153;-92
2022/11/23 09:58:01;;;;;;;12.90;6.13;;;;;;;16.75;70.90;97677.41;6229487;23;20295;-91
2022/11/23 10:00:34;;;;;;;13.97;5.87;;;;;;;16.65;71.07;97671.38;6245207;23;20152;-91
2022/11/23 10:02:59;;;;;;;13.30;6.53;;;;;;;16.72;71.05;97664.50;6245276;23;20523;-90
2022/11/23 10:05:31;;;;;;;12.17;4.87;;;;;;;16.77;71.03;97665.66;6246582;22;20187;-90
2022/11/23 10:08:25;;;;;;;13.67;6.30;;;;;;;16.85;71.47;97665.72;6246290;22;20143;-90
2022/11/23 10:11:30;;;;;;;18.33;5.80;;;;;;;16.95;71.62;97657.72;6245290;23;20148;-90
2022/11/23 10:14:32;;;;;;;12.73;5.60;;;;;;;16.94;71.17;97656.03;6245323;23;20156;-90
2022/11/23 10:17:01;;;;;;;14.37;5.70;;;;;;;17.03;70.32;97649.81;6244991;23;20243;-91
2022/11/23 10:19:35;;;;;;;10.93;5.40;;;;;;;17.00;70.91;97658.91;6246587;22;20153;-91
2022/11/23 10:22:13;;;;;;;12.00;5.60;;;;;;;17.08;72.77;97664.25;6245913;22;20583;-90
2022/11/23 10:24:44;;;;;;;14.10;5.53;;;;;;;17.23;72.34;97659.19;6245983;22;20157;-91
2022/11/23 10:27:16;;;;;;;15.90;6.47;;;;;;;17.38;70.54;97659.41;6244663;23;20191;-91
2022/11/23 10:29:43;;;;;;;14.53;6.50;;;;;;;17.46;69.05;97664.75;6245375;23;20506;-91
2022/11/23 10:32:54;;;;;;;19.00;7.07;;;;;;;17.36;69.41;97664.88;6245924;22;20160;-91
2022/11/23 10:35:27;;;;;;;17.00;5.67;;;;;;;17.34;69.09;97669.50;6153824;23;20171;-92
2022/11/23 10:38:08;;;;;;;11.60;5.37;;;;;;;17.40;68.92;97670.69;6129069;23;20562;-91
2022/11/23 10:40:36;;;;;;;10.87;5.03;;;;;;;17.46;69.09;97665.56;6204658;23;20153;-90
2022/11/23 10:43:13;;;;;;;15.50;5.97;;;;;;;17.52;70.01;97664.94;6244717;23;20234;-90
2022/11/23 10:45:38;;;;;;;12.07;5.53;;;;;;;17.60;68.80;97666.81;6245722;22;20481;-91
2022/11/23 10:48:04;;;;;;;17.13;6.67;;;;;;;17.72;69.00;97663.72;6246047;23;20169;-91
2022/11/23 10:51:13;;;;;;;13.73;5.30;;;;;;;17.69;67.45;97661.38;6246096;22;20474;-91
2022/11/23 10:53:40;;;;;;;13.77;4.93;;;;;;;17.78;66.97;97660.44;6245539;23;20156;-90
2022/11/23 10:56:12;;;;;;;10.73;4.97;;;;;;;17.85;67.61;97655.31;6246361;22;20566;-91
2022/11/23 10:58:44;;;;;;;13.27;5.70;;;;;;;17.93;66.67;97657.13;6244939;23;20157;-91
2022/11/23 11:01:24;;;;;;;12.40;5.53;;;;;;;18.01;66.71;97649.19;6244762;23;20153;-90
2022/11/23 11:03:53;;;;;;;10.80;5.60;;;;;;;17.89;67.29;97658.47;6244801;23;20145;-91
2022/11/23 11:06:34;;;;;;;11.57;5.53;;;;;;;18.04;66.33;97662.97;6245837;22;20179;-91
2022/11/23 11:09:04;;;;;;;9.40;4.67;;;;;;;18.07;67.39;97661.81;6244869;23;20228;-90
2022/11/23 11:11:38;;;;;;;8.13;4.23;;;;;;;18.06;66.43;97657.50;6245766;22;20148;-92
2022/11/23 11:14:17;;;;;;;11.13;5.23;;;;;;;17.98;66.28;97663.63;6245213;23;20144;-91
2022/11/23 11:16:53;;;;;;;12.10;5.50;;;;;;;18.10;66.77;97661.50;6272286;22;20194;-91
2022/11/23 11:19:33;;;;;;;14.30;5.60;;;;;;;18.34;66.96;97656.22;6276737;22;20148;-91
2022/11/23 11:22:23;;;;;;;9.53;4.37;;;;;;;18.40;66.46;97656.38;6276839;22;20128;-90
2022/11/23 11:24:49;;;;;;;12.90;5.73;;;;;;;18.54;66.52;97652.28;6248853;22;20172;-90
2022/11/23 11:27:24;;;;;;;11.37;4.17;;;;;;;18.93;64.91;97652.41;6249788;22;20236;-90
2022/11/23 11:29:52;;;;;;;13.30;4.83;;;;;;;19.08;62.82;97647.25;6276797;22;20132;-91
2022/11/23 11:32:56;;;;;;;10.20;4.93;;;;;;;19.23;64.02;97657.00;6275937;22;20146;-91
2022/11/23 11:35:34;;;;;;;10.27;5.60;;;;;;;19.32;62.05;97653.28;6230788;22;20591;-91
2022/11/23 11:38:32;;;;;;;11.03;5.30;;;;;;;19.33;60.64;97649.66;6277293;22;20219;-92
2022/11/23 11:41:10;;;;;;;11.10;5.23;;;;;;;18.97;61.38;97649.22;6239798;22;20170;-92
2022/11/23 11:43:45;;;;;;;13.00;5.17;;;;;;;18.99;62.83;97646.41;6276777;22;20191;-93
2022/11/23 11:46:50;;;;;;;10.87;5.03;;;;;;;18.78;63.03;97644.31;6276535;22;20621;-92
2022/11/23 11:49:30;;;;;;;14.10;4.70;;;;;;;18.78;63.21;97646.94;6255463;22;20147;-92
2022/11/23 11:52:05;;;;;;;10.83;4.83;;;;;;;18.90;62.75;97648.25;6250626;22;20148;-91
2022/11/23 11:54:54;;;;;;;10.03;5.30;;;;;;;18.93;62.81;97652.41;6255328;22;20201;-91
2022/11/23 11:57:25;;;;;;;10.53;4.63;;;;;;;18.99;62.89;97639.28;6310080;22;20163;-92
2022/11/23 11:59:56;;;;;;;10.83;4.67;;;;;;;19.07;62.89;97642.91;6282791;22;20259;-92
2022/11/23 12:02:50;;;;;;;9.80;4.63;;;;;;;19.00;63.12;97638.25;6283133;22;20492;-93
2022/11/23 12:05:24;;;;;;;10.43;5.47;;;;;;;19.05;63.04;97655.53;6283041;22;20171;-92
2022/11/23 12:08:11;;;;;;;13.43;4.50;;;;;;;19.11;62.58;97654.84;6282295;22;20155;-91
2022/11/23 12:10:56;;;;;;;13.13;5.23;;;;;;;19.10;62.97;97646.06;6310016;22;20171;-92
2022/11/23 12:13:28;;;;;;;10.03;4.20;;;;;;;19.08;62.91;97640.06;6309817;22;20192;-91
2022/11/23 12:15:59;;;;;;;8.13;4.03;;;;;;;19.20;62.94;97645.88;6309135;22;20185;-92
2022/11/23 12:18:54;;;;;;;14.63;5.03;;;;;;;19.09;63.07;97640.91;6282120;22;20213;-91
2022/11/23 12:21:35;;;;;;;11.07;4.93;;;;;;;19.25;62.04;97646.19;6250497;22;20182;-92
2022/11/23 12:24:25;;;;;;;8.77;4.67;;;;;;;19.21;62.63;97642.22;6282071;22;20148;-91
2022/11/23 12:26:56;;;;;;;8.77;5.03;;;;;;;19.40;63.53;97642.66;6282056;22;20168;-92
2022/11/23 12:29:44;;;;;;;12.40;4.47;;;;;;;19.51;62.23;97636.16;6309290;22;20132;-91
2022/11/23 12:32:28;;;;;;;7.47;4.00;;;;;;;19.61;61.86;97647.38;6282065;22;20486;-91
2022/11/23 12:35:06;;;;;;;9.50;4.57;;;;;;;19.73;61.55;97646.03;6309636;22;20448;-91
2022/11/23 12:38:02;;;;;;;9.57;4.40;;;;;;;19.43;61.37;97644.16;6309156;22;20155;-90
2022/11/23 12:40:58;;;;;;;9.30;3.87;;;;;;;19.69;61.36;97650.00;6281974;22;20175;-91
2022/11/23 12:43:54;;;;;;;9.43;3.63;;;;;;;19.83;60.88;97657.25;6309252;22;20132;-91
2022/11/23 12:46:47;;;;;;;8.73;5.37;;;;;;;19.81;60.90;97659.25;6281771;22;20632;-91
2022/11/23 12:50:08;;;;;;;9.70;4.40;;;;;;;19.55;61.32;97669.34;6309085;22;20596;-91
2022/11/23 12:53:09;;;;;;;8.07;4.27;;;;;;;19.53;61.77;97668.69;6258545;22;20226;-93
2022/11/23 12:56:31;;;;;;;17.60;4.70;;;;;;;19.42;62.44;97667.22;6281930;22;20144;-92
2022/11/23 12:59:17;;;;;;;;;;;;;;;;;;;;;
2022/11/23 13:01:59;;;;;;;11.57;5.20;;;;;;;19.20;64.04;97657.31;6309445;22;20219;-92
2022/11/23 13:04:50;;;;;;;14.40;5.60;;;;;;;19.22;63.63;97659.78;6281751;22;20171;-91
2022/11/23 13:07:39;;;;;;;13.03;5.93;;;;;;;19.07;63.75;97658.84;6282226;22;20148;-92
2022/11/23 13:10:44;;;;;;;13.73;5.73;;;;;;;19.13;63.61;97652.88;6282129;22;20157;-92
2022/11/23 13:13:29;;;;;;;14.97;4.90;;;;;;;19.25;63.60;97660.28;6286378;22;20178;-94
2022/11/23 13:16:00;;;;;;;9.63;4.87;;;;;;;19.05;63.81;97644.91;6308359;22;20184;-93
2022/11/23 13:18:52;;;;;;;16.60;6.07;;;;;;;19.03;63.90;97656.53;6281602;22;20156;-93
2022/11/23 13:21:42;;;;;;;11.33;5.47;;;;;;;19.07;63.64;97659.69;6282047;22;20144;-92
2022/11/23 13:24:31;;;;;;;17.37;6.77;;;;;;;19.10;63.87;97664.66;6282451;22;20178;-91
2022/11/23 13:27:14;;;;;;;10.37;5.53;;;;;;;19.17;63.16;97659.47;6281553;22;20164;-91
2022/11/23 13:29:49;;;;;;;15.77;6.80;;;;;;;19.10;63.37;97664.66;6281400;22;20164;-91
2022/11/23 13:32:48;;;;;;;16.57;5.57;;;;;;;19.10;63.51;97664.66;6308637;22;20544;-92
2022/11/23 13:35:20;;;;;;;11.87;5.33;;;;;;;18.89;64.19;97667.81;6281603;22;20143;-92
2022/11/23 13:37:54;;;;;;;18.77;7.07;;;;;;;18.60;64.68;97666.69;6309126;22;20170;-93
2022/11/23 13:40:32;;;;;;;17.13;6.40;;;;;;;18.39;65.23;97672.47;6281651;22;20159;-92
2022/11/23 13:43:28;;;;;;;13.57;6.33;;;;;;;18.57;64.91;97670.53;6308948;22;20148;-92
2022/11/23 13:46:30;;;;;;;13.33;5.43;;;;;;;18.68;64.59;97679.97;6269627;22;20240;-91
2022/11/23 13:48:59;;;;;;;15.97;6.23;;;;;;;18.75;64.76;97687.09;6308757;22;20515;-91
2022/11/23 13:51:34;;;;;;;14.97;6.63;;;;;;;18.80;64.32;97695.38;6282110;22;20162;-92
2022/11/23 13:54:05;;;;;;;11.63;6.30;;;;;;;18.69;63.92;97692.22;6281300;22;20181;-92
2022/11/23 13:56:35;;;;;;;13.30;5.70;;;;;;;18.35;64.54;97689.69;6281381;22;20145;-94
2022/11/23 13:59:24;;;;;;;14.60;6.67;;;;;;;18.27;65.38;97697.66;6281250;22;20143;-92
2022/11/23 14:02:08;;;;;;;22.27;6.97;;;;;;;18.34;65.23;97698.66;6261998;22;20183;-91
2022/11/23 14:04:43;;;;;;;12.63;5.83;;;;;;;18.34;64.83;97698.66;6281110;22;20186;-91
2022/11/23 14:07:17;;;;;;;15.60;6.10;;;;;;;18.11;65.90;97694.94;6281185;22;20155;-91
2022/11/23 14:10:03;;;;;;;13.70;7.20;;;;;;;18.00;66.66;97698.78;6281224;22;20148;-92
2022/11/23 14:12:35;;;;;;;18.13;8.47;;;;;;;17.91;67.33;97701.53;6281076;22;20148;-92
2022/11/23 14:15:14;;;;;;;21.87;8.80;;;;;;;18.01;66.95;97703.06;6280549;22;20147;-92
2022/11/23 14:17:53;;;;;;;18.33;8.83;;;;;;;18.11;66.56;97705.56;6307905;22;20131;-91
2022/11/23 14:20:37;;;;;;;22.40;9.57;;;;;;;18.14;66.84;97707.91;6308255;22;20132;-92
2022/11/23 14:23:44;;;;;;;24.77;9.07;;;;;;;18.03;66.97;97710.88;6281411;22;20170;-92
2022/11/23 14:26:44;;;;;;;19.87;8.87;;;;;;;18.02;67.10;97725.09;6281038;22;20167;-92
2022/11/23 14:29:47;;;;;;;16.63;8.20;;;;;;;17.94;67.23;97725.09;6308142;22;20140;-92
2022/11/23 14:32:35;;;;;;;16.57;7.83;;;;;;;17.82;67.37;97724.53;6308263;22;20146;-91
2022/11/23 14:35:03;;;;;;;18.33;7.97;;;;;;;17.73;67.91;97720.19;6307935;22;20156;-92
2022/11/23 14:37:53;;;;;;;15.90;7.47;;;;;;;17.81;67.75;97714.94;6308055;22;20143;-92
2022/11/23 14:40:34;;;;;;;15.30;7.63;;;;;;;17.79;67.38;97717.72;6280749;22;20574;-91
2022/11/23 14:43:00;;;;;;;16.87;7.47;;;;;;;17.77;67.05;97725.00;6281040;22;20144;-91
2022/11/23 14:45:32;;;;;;;21.63;8.80;;;;;;;17.70;67.41;97720.53;6307624;22;20239;-91
2022/11/23 14:48:20;;;;;;;20.80;8.30;;;;;;;17.67;67.48;97721.66;6280756;22;20167;-92
2022/11/23 14:50:54;;;;;;;14.50;6.50;;;;;;;17.63;67.56;97725.63;6308141;22;20575;-91
2022/11/23 14:53:19;;;;;;;12.87;6.93;;;;;;;17.61;67.33;97714.34;6280914;22;20181;-91